createdAt,value
2023-03-30T00:01:21.892Z,100641.50
2023-03-30T00:03:50.488Z,100653.06
2023-03-30T00:06:22.885Z,100676.84
2023-03-30T00:08:57.237Z,100683.78
2023-03-30T00:11:27.669Z,100680.53
2023-03-30T00:13:56.012Z,100674.44
2023-03-30T00:16:26.062Z,100675.47
2023-03-30T00:18:54.513Z,100657.44
2023-03-30T00:21:23.080Z,100656.31
2023-03-30T00:23:52.444Z,100666.09
2023-03-30T00:26:20.910Z,100670.56
2023-03-30T00:28:49.277Z,100656.88
2023-03-30T00:31:20.290Z,100638.75
2023-03-30T00:33:50.265Z,100646.72
2023-03-30T00:36:18.957Z,100619.44
2023-03-30T00:38:49.275Z,100632.44
2023-03-30T00:41:17.891Z,100636.88
2023-03-30T00:43:58.579Z,100605.91
2023-03-30T00:46:27.088Z,100618.06
2023-03-30T00:48:59.728Z,100606.34
2023-03-30T00:51:29.940Z,100636.28
2023-03-30T00:54:05.782Z,100613.13
2023-03-30T00:56:34.761Z,100634.47
2023-03-30T00:59:04.129Z,100616.81
2023-03-30T01:01:38.654Z,100621.72
2023-03-30T01:04:10.988Z,100613.81
2023-03-30T01:06:43.392Z,100641.69
2023-03-30T01:09:12.025Z,100586.63
2023-03-30T01:11:41.028Z,100602.50
2023-03-30T01:14:12.534Z,100640.63
2023-03-30T01:16:50.523Z,100632.75
2023-03-30T01:20:13.029Z,100640.03
2023-03-30T01:23:10.801Z,100618.88
2023-03-30T01:26:12.561Z,100620.53
2023-03-30T01:28:46.888Z,100593.44
2023-03-30T01:31:42.045Z,100592.69
2023-03-30T01:35:02.391Z,100593.09
2023-03-30T01:38:19.003Z,100599.75
2023-03-30T01:41:02.056Z,100535.03
2023-03-30T01:43:38.024Z,100565.72
2023-03-30T01:46:17.604Z,100591.63
2023-03-30T01:48:54.756Z,100586.00
2023-03-30T01:51:28.164Z,100585.91
2023-03-30T01:54:03.655Z,100612.41
2023-03-30T01:56:36.420Z,100583.41
2023-03-30T01:59:12.613Z,100618.69
2023-03-30T02:01:50.151Z,100603.97
2023-03-30T02:04:23.909Z,100591.44
2023-03-30T02:07:00.492Z,100597.53
2023-03-30T02:09:30.893Z,100622.84
2023-03-30T02:12:01.884Z,100597.72
2023-03-30T02:14:34.799Z,100623.19
2023-03-30T02:17:11.357Z,100623.75
2023-03-30T02:19:39.866Z,100629.69
2023-03-30T02:22:08.727Z,100614.53
2023-03-30T02:24:38.029Z,100624.31
2023-03-30T02:27:07.986Z,100622.28
2023-03-30T02:29:40.188Z,100619.03
2023-03-30T02:32:20.479Z,100593.91
2023-03-30T02:35:11.294Z,100595.59
2023-03-30T02:38:16.049Z,100599.03
2023-03-30T02:40:57.957Z,100590.25
2023-03-30T02:43:40.751Z,100627.53
2023-03-30T02:46:25.733Z,100609.22
2023-03-30T02:49:09.169Z,100629.59
2023-03-30T02:51:46.863Z,100625.72
2023-03-30T02:54:37.569Z,100596.69
2023-03-30T02:57:38.197Z,100596.25
2023-03-30T03:00:36.041Z,100608.44
2023-03-30T03:03:12.947Z,100600.22
2023-03-30T03:05:42.923Z,100575.13
2023-03-30T03:08:16.530Z,100590.56
2023-03-30T03:10:47.093Z,100586.97
2023-03-30T03:13:16.943Z,100593.09
2023-03-30T03:15:49.568Z,100581.78
2023-03-30T03:18:18.671Z,100560.31
2023-03-30T03:20:47.635Z,100583.94
2023-03-30T03:23:16.056Z,100582.28
2023-03-30T03:25:49.421Z,100574.41
2023-03-30T03:28:20.138Z,100581.63
2023-03-30T03:30:58.266Z,100553.53
2023-03-30T03:33:27.476Z,100552.06
2023-03-30T03:36:09.058Z,100574.16
2023-03-30T03:38:42.228Z,100564.97
2023-03-30T03:41:11.129Z,100572.00
2023-03-30T03:43:41.636Z,100577.38
2023-03-30T03:46:12.064Z,100565.25
2023-03-30T03:48:41.444Z,100529.63
2023-03-30T03:51:11.307Z,100588.75
2023-03-30T03:53:39.732Z,100585.53
2023-03-30T03:56:12.701Z,100539.44
2023-03-30T03:58:41.220Z,100589.81
2023-03-30T04:01:14.454Z,100563.88
2023-03-30T04:03:42.994Z,100557.59
2023-03-30T04:06:11.603Z,100563.56
2023-03-30T04:08:40.092Z,100592.09
2023-03-30T04:11:46.873Z,100583.72
2023-03-30T04:14:30.909Z,100601.50
2023-03-30T04:17:16.387Z,100592.34
2023-03-30T04:20:04.170Z,100579.75
2023-03-30T04:22:50.307Z,100583.13
2023-03-30T04:25:48.103Z,100595.50
2023-03-30T04:28:35.702Z,100583.91
2023-03-30T04:31:35.902Z,100585.91
2023-03-30T04:34:26.782Z,100568.59
2023-03-30T04:37:08.475Z,100559.31
2023-03-30T04:40:09.402Z,100583.44
2023-03-30T04:43:02.352Z,100592.41
2023-03-30T04:45:55.619Z,100551.63
2023-03-30T04:48:42.504Z,100596.13
2023-03-30T04:51:35.636Z,100595.72
2023-03-30T04:54:12.639Z,100592.25
2023-03-30T04:57:07.520Z,100594.59
2023-03-30T04:59:46.280Z,100592.59
2023-03-30T05:02:33.607Z,100528.28
2023-03-30T05:05:20.564Z,100525.31
2023-03-30T05:08:02.423Z,100583.34
2023-03-30T05:10:47.726Z,100589.16
2023-03-30T05:13:36.324Z,100564.53
2023-03-30T05:16:20.168Z,100583.41
2023-03-30T05:19:11.003Z,100553.84
2023-03-30T05:21:45.755Z,100591.31
2023-03-30T05:24:54.324Z,100585.31
2023-03-30T05:27:37.291Z,100592.03
2023-03-30T05:30:37.995Z,100588.78
2023-03-30T05:33:24.888Z,100599.47
2023-03-30T05:36:13.537Z,100597.94
2023-03-30T05:39:01.894Z,100550.47
2023-03-30T05:41:54.279Z,100571.66
2023-03-30T05:44:46.951Z,100561.63
2023-03-30T05:47:50.325Z,100621.84
2023-03-30T05:50:37.482Z,100589.44
2023-03-30T05:53:09.598Z,100623.78
2023-03-30T05:56:01.244Z,100623.63
2023-03-30T05:58:49.669Z,100596.78
2023-03-30T06:01:41.329Z,100615.81
2023-03-30T06:04:10.072Z,100617.66
2023-03-30T06:06:39.178Z,100604.19
2023-03-30T06:09:07.584Z,100608.19
2023-03-30T06:11:37.862Z,100576.50
2023-03-30T06:14:23.538Z,100618.69
2023-03-30T06:17:21.127Z,100627.00
2023-03-30T06:19:50.511Z,100623.81
2023-03-30T06:22:18.972Z,100617.34
2023-03-30T06:24:52.624Z,100605.00
2023-03-30T06:27:22.296Z,100628.66
2023-03-30T06:29:52.057Z,100631.66
2023-03-30T06:32:20.504Z,100616.50
2023-03-30T06:35:18.306Z,100637.50
2023-03-30T06:37:47.168Z,100646.19
2023-03-30T06:40:17.367Z,100649.19
2023-03-30T06:42:49.535Z,100615.16
2023-03-30T06:45:31.677Z,100633.00
2023-03-30T06:48:00.405Z,100653.19
2023-03-30T06:50:30.092Z,100581.06
2023-03-30T06:53:07.783Z,100649.16
2023-03-30T06:55:43.106Z,100611.16
2023-03-30T06:58:16.824Z,100653.25
2023-03-30T07:00:47.066Z,100624.84
2023-03-30T07:03:34.100Z,100642.97
2023-03-30T07:06:21.006Z,100649.81
2023-03-30T07:08:50.443Z,100633.94
2023-03-30T07:11:23.764Z,100652.34
2023-03-30T07:13:55.452Z,100676.22
2023-03-30T07:16:25.711Z,100676.47
2023-03-30T07:18:55.057Z,100691.94
2023-03-30T07:21:23.887Z,100661.25
2023-03-30T07:23:52.558Z,100692.63
2023-03-30T07:26:32.739Z,100677.69
2023-03-30T07:29:07.436Z,100685.94
2023-03-30T07:31:38.234Z,100688.06
2023-03-30T07:34:09.401Z,100660.50
2023-03-30T07:36:42.262Z,100669.91
2023-03-30T07:39:11.204Z,100698.16
2023-03-30T07:41:41.769Z,100696.00
2023-03-30T07:44:10.165Z,100650.75
2023-03-30T07:46:41.231Z,100660.59
2023-03-30T07:49:15.315Z,100701.56
2023-03-30T07:51:43.792Z,100706.25
2023-03-30T07:54:25.465Z,100670.03
2023-03-30T07:57:14.170Z,100712.16
2023-03-30T07:59:42.690Z,100703.91
2023-03-30T08:02:22.456Z,100716.41
2023-03-30T08:04:53.980Z,100719.94
2023-03-30T08:07:43.062Z,100689.53
2023-03-30T08:10:20.763Z,100718.66
2023-03-30T08:12:49.331Z,100693.06
2023-03-30T08:15:17.875Z,100672.03
2023-03-30T08:17:47.725Z,100738.72
2023-03-30T08:20:16.124Z,100741.69
2023-03-30T08:22:44.577Z,100737.25
2023-03-30T08:25:13.004Z,100736.72
2023-03-30T08:27:41.375Z,100703.19
2023-03-30T08:30:13.150Z,100724.16
2023-03-30T08:32:41.552Z,100748.59
2023-03-30T08:35:13.078Z,100752.47
2023-03-30T08:37:42.040Z,100738.69
2023-03-30T08:40:13.816Z,100736.22
2023-03-30T08:43:12.909Z,100730.75
2023-03-30T08:45:44.204Z,100734.19
2023-03-30T08:48:19.119Z,100724.13
2023-03-30T08:50:57.438Z,100759.09
2023-03-30T08:53:26.547Z,100755.34
2023-03-30T08:56:02.477Z,100770.69
2023-03-30T08:58:44.040Z,100772.28
2023-03-30T09:01:22.040Z,100745.34
2023-03-30T09:04:09.135Z,100747.13
2023-03-30T09:06:49.993Z,100742.41
2023-03-30T09:09:22.326Z,100740.94
2023-03-30T09:11:56.628Z,100763.59
2023-03-30T09:14:35.560Z,100757.16
2023-03-30T09:17:13.080Z,100752.22
2023-03-30T09:19:52.369Z,100771.00
2023-03-30T09:22:26.214Z,100784.50
2023-03-30T09:24:55.513Z,100782.50
2023-03-30T09:27:36.018Z,100783.03
2023-03-30T09:30:20.042Z,100788.31
2023-03-30T09:33:00.914Z,100770.25
2023-03-30T09:35:40.405Z,100782.47
2023-03-30T09:38:14.289Z,100761.78
2023-03-30T09:41:07.334Z,100750.06
2023-03-30T09:43:44.038Z,100773.97
2023-03-30T09:46:14.109Z,100785.66
2023-03-30T09:48:44.646Z,100773.34
2023-03-30T09:51:25.205Z,100777.72
2023-03-30T09:54:01.688Z,100788.66
2023-03-30T09:56:40.927Z,100772.78
2023-03-30T09:59:23.589Z,100752.25
2023-03-30T10:01:51.947Z,100812.13
2023-03-30T10:04:20.806Z,100831.81
2023-03-30T10:06:51.486Z,100799.44
2023-03-30T10:09:25.047Z,100773.66
2023-03-30T10:11:56.145Z,100795.28
2023-03-30T10:14:31.663Z,100809.09
2023-03-30T10:17:01.256Z,100814.19
2023-03-30T10:19:30.724Z,100781.34
2023-03-30T10:22:04.283Z,100772.75
2023-03-30T10:24:36.795Z,100811.22
2023-03-30T10:27:12.880Z,100821.53
2023-03-30T10:29:48.659Z,100799.88
2023-03-30T10:32:21.529Z,100810.16
2023-03-30T10:34:53.422Z,100794.22
2023-03-30T10:37:30.112Z,100833.28
2023-03-30T10:40:02.507Z,100787.09
2023-03-30T10:42:34.275Z,100787.84
2023-03-30T10:45:05.688Z,100800.56
2023-03-30T10:47:58.025Z,100821.63
2023-03-30T10:50:36.804Z,100821.09
2023-03-30T10:53:26.328Z,100827.50
2023-03-30T10:56:04.608Z,100815.78
2023-03-30T10:59:17.392Z,100813.53
2023-03-30T11:02:01.496Z,100797.28
2023-03-30T11:04:38.365Z,100781.41
2023-03-30T11:07:17.790Z,100825.25
2023-03-30T11:09:55.042Z,100793.09
2023-03-30T11:12:31.457Z,100813.03
2023-03-30T11:15:04.160Z,100793.56
2023-03-30T11:17:36.326Z,100812.91
2023-03-30T11:20:20.896Z,100804.88
2023-03-30T11:22:54.543Z,100821.84
2023-03-30T11:25:28.028Z,100771.91
2023-03-30T11:28:07.040Z,100799.34
2023-03-30T11:30:37.696Z,100802.66
2023-03-30T11:33:20.110Z,100797.59
2023-03-30T11:35:52.069Z,100803.28
2023-03-30T11:38:27.556Z,100846.59
2023-03-30T11:41:01.983Z,100805.78
2023-03-30T11:43:32.860Z,100823.34
2023-03-30T11:46:08.004Z,100817.53
2023-03-30T11:49:10.603Z,100840.75
2023-03-30T11:52:08.363Z,100848.75
2023-03-30T11:55:07.189Z,100848.97
2023-03-30T11:57:45.258Z,100855.34
2023-03-30T12:00:31.126Z,100845.41
2023-03-30T12:03:13.458Z,100856.16
2023-03-30T12:05:47.250Z,100831.06
2023-03-30T12:08:38.166Z,100841.91
2023-03-30T12:11:17.497Z,100853.75
2023-03-30T12:13:51.250Z,100866.56
2023-03-30T12:16:30.281Z,100831.59
2023-03-30T12:19:13.012Z,100845.84
2023-03-30T12:21:53.024Z,100846.66
2023-03-30T12:24:30.715Z,100855.13
2023-03-30T12:27:06.227Z,100860.56
2023-03-30T12:32:29.233Z,100844.75
2023-03-30T12:34:59.448Z,100820.09
2023-03-30T12:37:34.784Z,100824.56
2023-03-30T12:40:10.355Z,100842.50
2023-03-30T12:42:46.365Z,100825.72
2023-03-30T12:45:32.297Z,100845.47
2023-03-30T12:48:33.697Z,100835.38
2023-03-30T12:51:16.399Z,100851.31
2023-03-30T12:54:17.577Z,100850.22
2023-03-30T12:56:58.273Z,100852.81
2023-03-30T12:59:53.334Z,100820.19
2023-03-30T13:02:44.787Z,100849.34
2023-03-30T13:05:24.922Z,100833.06
2023-03-30T13:07:56.327Z,100846.50
2023-03-30T13:10:42.137Z,100795.44
2023-03-30T13:13:24.063Z,100809.56
2023-03-30T13:15:57.159Z,100853.34
2023-03-30T13:18:52.691Z,100839.53
2023-03-30T13:21:25.973Z,100835.78
2023-03-30T13:24:36.955Z,100837.69
2023-03-30T13:27:29.689Z,100809.81
2023-03-30T13:30:01.029Z,100831.19
2023-03-30T13:32:54.011Z,100798.59
2023-03-30T13:35:38.978Z,100800.72
2023-03-30T13:38:50.682Z,100847.34
2023-03-30T13:41:38.457Z,100832.06
2023-03-30T13:44:29.548Z,100838.91
2023-03-30T13:47:10.907Z,100792.88
2023-03-30T13:49:52.813Z,100827.81
2023-03-30T13:52:38.371Z,100814.16
2023-03-30T13:55:19.004Z,100825.31
2023-03-30T13:57:47.419Z,100820.63
2023-03-30T14:00:39.665Z,100779.72
2023-03-30T14:03:39.890Z,100812.25
2023-03-30T14:06:17.557Z,100778.28
2023-03-30T14:08:49.078Z,100814.66
2023-03-30T14:11:22.105Z,100812.31
2023-03-30T14:13:53.397Z,100810.13
2023-03-30T14:16:24.278Z,100822.28
2023-03-30T14:18:53.224Z,100781.00
2023-03-30T14:21:24.316Z,100817.63
2023-03-30T14:23:55.256Z,100821.72
2023-03-30T14:26:28.858Z,100814.56
2023-03-30T14:28:58.801Z,100818.81
2023-03-30T14:31:28.013Z,100835.38
2023-03-30T14:33:56.739Z,100801.34
2023-03-30T14:36:25.568Z,100816.38
2023-03-30T14:38:57.528Z,100816.03
2023-03-30T14:41:29.416Z,100820.72
2023-03-30T14:44:01.315Z,100789.38
2023-03-30T14:46:41.258Z,100812.28
2023-03-30T14:49:15.999Z,100810.41
2023-03-30T14:51:48.426Z,100793.16
2023-03-30T14:54:19.780Z,100825.94
2023-03-30T14:56:57.704Z,100819.06
2023-03-30T14:59:27.912Z,100819.34
2023-03-30T15:01:57.405Z,100823.88
2023-03-30T15:04:33.007Z,100819.78
2023-03-30T15:07:01.459Z,100802.13
2023-03-30T15:09:37.929Z,100808.41
2023-03-30T15:12:09.004Z,100813.66
2023-03-30T15:14:40.549Z,100791.94
2023-03-30T15:17:12.795Z,100796.38
2023-03-30T15:19:41.860Z,100809.94
2023-03-30T15:22:20.807Z,100821.19
2023-03-30T15:24:49.334Z,100766.88
2023-03-30T15:27:19.470Z,100812.88
2023-03-30T15:29:48.288Z,100800.88
2023-03-30T15:32:20.061Z,100787.19
2023-03-30T15:35:21.143Z,100813.09
2023-03-30T15:37:56.790Z,100804.22
2023-03-30T15:40:36.175Z,100810.84
2023-03-30T15:43:21.249Z,100804.44
2023-03-30T15:45:53.349Z,100788.50
2023-03-30T15:48:26.954Z,100808.13
2023-03-30T15:51:03.635Z,100807.84
2023-03-30T15:53:40.933Z,100808.97
2023-03-30T15:56:18.773Z,100777.47
2023-03-30T15:58:50.000Z,100790.06
2023-03-30T16:01:18.871Z,100798.44
2023-03-30T16:03:56.320Z,100772.56
2023-03-30T16:06:25.405Z,100796.25
2023-03-30T16:08:53.854Z,100788.72
2023-03-30T16:11:23.828Z,100796.47
2023-03-30T16:13:55.002Z,100776.72
2023-03-30T16:16:23.441Z,100797.47
2023-03-30T16:18:52.207Z,100792.66
2023-03-30T16:21:24.422Z,100750.94
2023-03-30T16:23:53.046Z,100744.72
2023-03-30T16:26:21.781Z,100766.72
2023-03-30T16:28:55.009Z,100789.53
2023-03-30T16:31:24.863Z,100788.44
2023-03-30T16:33:53.522Z,100778.44
2023-03-30T16:36:24.112Z,100763.09
2023-03-30T16:38:52.554Z,100781.88
2023-03-30T16:41:23.502Z,100786.19
2023-03-30T16:43:53.248Z,100773.66
2023-03-30T16:46:22.191Z,100790.41
2023-03-30T16:48:50.866Z,100786.13
2023-03-30T16:51:20.109Z,100785.41
2023-03-30T16:53:48.802Z,100787.28
2023-03-30T16:56:19.315Z,100789.22
2023-03-30T16:58:49.559Z,100760.91
2023-03-30T17:01:19.586Z,100788.97
2023-03-30T17:03:48.249Z,100793.25
2023-03-30T17:06:17.184Z,100796.44
2023-03-30T17:08:46.343Z,100777.09
2023-03-30T17:11:15.234Z,100785.00
2023-03-30T17:13:46.159Z,100778.94
2023-03-30T17:16:16.519Z,100755.97
2023-03-30T17:18:46.446Z,100801.66
2023-03-30T17:21:17.209Z,100799.25
2023-03-30T17:23:47.865Z,100793.00
2023-03-30T17:26:17.177Z,100772.06
2023-03-30T17:28:46.519Z,100770.13
2023-03-30T17:31:18.008Z,100770.78
2023-03-30T17:33:48.810Z,100751.88
2023-03-30T17:36:19.986Z,100754.50
2023-03-30T17:38:48.968Z,100760.50
2023-03-30T17:41:19.534Z,100787.41
2023-03-30T17:43:49.083Z,100763.44
2023-03-30T17:46:20.700Z,100768.06
2023-03-30T17:48:51.268Z,100782.94
2023-03-30T17:51:19.676Z,100794.31
2023-03-30T17:53:48.038Z,100782.53
2023-03-30T17:56:16.414Z,100797.78
2023-03-30T17:58:44.858Z,100791.72
2023-03-30T18:01:13.840Z,100791.72
2023-03-30T18:03:42.826Z,100788.25
2023-03-30T18:06:13.899Z,100755.75
2023-03-30T18:08:43.058Z,100793.53
2023-03-30T18:11:11.703Z,100799.91
2023-03-30T18:13:40.046Z,100800.47
2023-03-30T18:16:08.707Z,100794.53
2023-03-30T18:18:37.248Z,100790.03
2023-03-30T18:21:06.818Z,100756.47
2023-03-30T18:23:37.309Z,100799.16
2023-03-30T18:26:11.109Z,100757.84
2023-03-30T18:28:43.779Z,100767.72
2023-03-30T18:31:12.762Z,100788.25
2023-03-30T18:33:41.395Z,100791.84
2023-03-30T18:36:13.273Z,100777.19
2023-03-30T18:38:44.104Z,100785.50
2023-03-30T18:41:13.877Z,100788.31
2023-03-30T18:43:42.219Z,100773.88
2023-03-30T18:46:13.800Z,100792.28
2023-03-30T18:48:42.416Z,100751.41
2023-03-30T18:51:12.511Z,100784.22
2023-03-30T18:53:42.226Z,100788.91
2023-03-30T18:56:13.755Z,100755.25
2023-03-30T18:58:43.028Z,100792.63
2023-03-30T19:01:13.324Z,100775.59
2023-03-30T19:03:42.360Z,100766.19
2023-03-30T19:06:14.016Z,100776.38
2023-03-30T19:08:44.121Z,100801.28
2023-03-30T19:11:17.331Z,100789.59
2023-03-30T19:13:47.124Z,100794.16
2023-03-30T19:16:16.956Z,100781.78
2023-03-30T19:18:45.750Z,100757.56
2023-03-30T19:21:17.073Z,100752.91
2023-03-30T19:23:46.791Z,100765.44
2023-03-30T19:26:15.423Z,100754.97
2023-03-30T19:28:43.859Z,100773.34
2023-03-30T19:31:15.976Z,100745.47
2023-03-30T19:33:44.743Z,100763.50
2023-03-30T19:36:13.145Z,100778.84
2023-03-30T19:38:43.891Z,100781.06
2023-03-30T19:41:13.933Z,100776.41
2023-03-30T19:43:42.302Z,100717.31
2023-03-30T19:46:10.889Z,100773.19
2023-03-30T19:48:39.262Z,100773.06
2023-03-30T19:51:07.884Z,100769.03
2023-03-30T19:53:37.207Z,100769.75
2023-03-30T19:56:11.084Z,100759.91
2023-03-30T19:58:40.864Z,100768.41
2023-03-30T20:01:10.385Z,100761.72
2023-03-30T20:03:38.971Z,100731.00
2023-03-30T20:06:11.606Z,100722.34
2023-03-30T20:08:40.184Z,100758.22
2023-03-30T20:11:09.574Z,100734.16
2023-03-30T20:13:37.994Z,100755.72
2023-03-30T20:16:07.912Z,100753.06
2023-03-30T20:18:36.484Z,100748.38
2023-03-30T20:21:05.840Z,100741.38
2023-03-30T20:23:34.418Z,100745.19
2023-03-30T20:26:04.507Z,100742.88
2023-03-30T20:28:33.221Z,100736.03
2023-03-30T20:31:01.957Z,100709.97
2023-03-30T20:33:33.942Z,100664.94
2023-03-30T20:36:02.416Z,100721.50
2023-03-30T20:38:30.989Z,100712.47
2023-03-30T20:41:02.856Z,100735.66
2023-03-30T20:46:03.181Z,100704.31
2023-03-30T20:48:39.153Z,100740.38
2023-03-30T20:51:10.294Z,100739.34
2023-03-30T20:53:39.315Z,100725.66
2023-03-30T20:56:10.366Z,100722.31
2023-03-30T20:58:40.087Z,100698.47
2023-03-30T21:01:19.113Z,100722.66
2023-03-30T21:03:50.082Z,100730.34
2023-03-30T21:06:23.640Z,100709.50
2023-03-30T21:08:52.419Z,100703.97
2023-03-30T21:11:22.644Z,100689.63
2023-03-30T21:13:51.598Z,100693.78
2023-03-30T21:16:20.177Z,100674.72
2023-03-30T21:18:50.679Z,100697.94
2023-03-30T21:21:19.356Z,100682.41
2023-03-30T21:23:47.912Z,100706.47
2023-03-30T21:26:18.569Z,100640.72
2023-03-30T21:28:47.272Z,100652.22
2023-03-30T21:31:17.244Z,100695.28
2023-03-30T21:33:45.936Z,100697.47
2023-03-30T21:36:15.751Z,100686.44
2023-03-30T21:38:44.094Z,100680.94
2023-03-30T21:41:14.800Z,100683.94
2023-03-30T21:43:45.619Z,100665.06
2023-03-30T21:46:16.347Z,100681.94
2023-03-30T21:48:46.741Z,100677.75
2023-03-30T21:51:19.336Z,100661.03
2023-03-30T21:53:51.077Z,100613.97
2023-03-30T21:56:22.318Z,100638.81
2023-03-30T21:58:51.265Z,100668.03
2023-03-30T22:01:21.455Z,100656.03
2023-03-30T22:03:49.967Z,100664.25
2023-03-30T22:06:19.895Z,100590.66
2023-03-30T22:08:48.606Z,100658.25
2023-03-30T22:11:20.190Z,100645.88
2023-03-30T22:13:49.753Z,100642.56
2023-03-30T22:16:22.476Z,100616.69
2023-03-30T22:18:51.874Z,100652.91
2023-03-30T22:21:24.973Z,100644.56
2023-03-30T22:23:54.717Z,100647.75
2023-03-30T22:26:23.708Z,100647.72
2023-03-30T22:28:52.053Z,100628.88
2023-03-30T22:31:20.506Z,100606.84
2023-03-30T22:33:49.379Z,100622.88
2023-03-30T22:36:20.494Z,100617.16
2023-03-30T22:38:52.107Z,100608.84
2023-03-30T22:41:23.867Z,100601.69
2023-03-30T22:43:53.701Z,100562.50
2023-03-30T22:46:22.302Z,100598.53
2023-03-30T22:48:51.841Z,100545.50
2023-03-30T22:51:23.594Z,100579.50
2023-03-30T22:53:53.903Z,100577.81
2023-03-30T22:56:22.228Z,100568.66
2023-03-30T22:58:50.560Z,100561.50
2023-03-30T23:01:19.623Z,100562.81
2023-03-30T23:03:48.694Z,100556.66
2023-03-30T23:06:19.093Z,100536.13
2023-03-30T23:08:48.712Z,100555.06
2023-03-30T23:11:21.556Z,100534.00
2023-03-30T23:13:52.311Z,100516.09
2023-03-30T23:16:20.730Z,100506.75
2023-03-30T23:18:49.804Z,100492.25
2023-03-30T23:21:18.464Z,100486.38
2023-03-30T23:23:46.838Z,100520.69
2023-03-30T23:26:15.146Z,100519.16
2023-03-30T23:28:45.391Z,100517.47
2023-03-30T23:31:16.664Z,100507.91
2023-03-30T23:33:45.448Z,100509.66
2023-03-30T23:36:14.244Z,100493.28
2023-03-30T23:38:42.863Z,100466.84
2023-03-30T23:41:13.690Z,100484.91
2023-03-30T23:43:42.153Z,100500.56
2023-03-30T23:46:12.348Z,100495.53
2023-03-30T23:48:42.081Z,100458.09
2023-03-30T23:51:11.121Z,100462.88
2023-03-30T23:53:40.264Z,100476.63
2023-03-30T23:56:12.938Z,100466.81
2023-03-30T23:58:42.412Z,100437.63
